Time;durP1;ratioP1;P1;durP2;ratioP2;P2;SDS_P1;SDS_P2;PMS_P1;PMS_P2;Temp;Humidity;BMP_temperature;BMP_pressure;BME280_temperature;BME280_humidity;BME280_pressure;Samples;Min_cycle;Max_cycle;Signal;HPM_P1;HPM_P2
2022/07/23 00:00:29;;;;;;;7.47;2.83;;;;;;;;;;6119368;23;20068;-53
2022/07/23 00:03:05;;;;;;;5.75;2.83;;;;;;;;;;6120083;23;20538;-65
2022/07/23 00:05:32;;;;;;;7.53;2.83;;;;;;;;;;6120074;23;20026;-55
2022/07/23 00:08:02;;;;;;;7.88;3.15;;;;;;;;;;6119352;23;20064;-56
2022/07/23 00:10:30;;;;;;;6.05;3.35;;;;;;;;;;6120982;23;20030;-50
2022/07/23 00:12:57;;;;;;;4.75;2.90;;;;;;;;;;6120127;23;20045;-51
2022/07/23 00:15:24;;;;;;;5.32;2.72;;;;;;;;;;6122090;23;20464;-56
2022/07/23 00:17:52;;;;;;;6.47;3.30;;;;;;;;;;6122208;23;20098;-57
2022/07/23 00:20:19;;;;;;;8.52;2.90;;;;;;;;;;6122049;23;20025;-52
2022/07/23 00:22:48;;;;;;;3.50;2.45;;;;;;;;;;6120924;23;20025;-51
2022/07/23 00:25:15;;;;;;;3.10;2.50;;;;;;;;;;6121575;23;20337;-65
2022/07/23 00:27:59;;;;;;;3.85;2.47;;;;;;;;;;6121581;23;20030;-65
2022/07/23 00:30:29;;;;;;;4.30;2.40;;;;;;;;;;6121284;23;20022;-65
2022/07/23 00:32:58;;;;;;;4.93;2.50;;;;;;;;;;6121694;23;20029;-65
2022/07/23 00:35:26;;;;;;;10.10;2.50;;;;;;;;;;6120738;23;20506;-65
2022/07/23 00:37:54;;;;;;;4.68;2.70;;;;;;;;;;6121656;23;20065;-65
2022/07/23 00:40:22;;;;;;;7.90;2.60;;;;;;;;;;6121436;23;20022;-57
2022/07/23 00:42:49;;;;;;;5.40;2.58;;;;;;;;;;6122012;23;20039;-61
2022/07/23 00:45:16;;;;;;;5.25;2.63;;;;;;;;;;6120517;23;20054;-49
2022/07/23 00:47:44;;;;;;;4.18;2.65;;;;;;;;;;6095752;23;20313;-47
2022/07/23 00:50:12;;;;;;;10.18;2.75;;;;;;;;;;6122200;23;20030;-48
2022/07/23 00:52:39;;;;;;;;;;;;;;;;;;6122381;23;20092;-48
2022/07/23 00:55:07;;;;;;;5.57;2.35;;;;;;;;;;6121361;23;19921;-53
2022/07/23 00:57:34;;;;;;;13.95;3.88;;;;;;;;;;6120775;23;20049;-54
2022/07/23 01:00:02;;;;;;;5.75;2.45;;;;;;;;;;6121831;23;20026;-50
2022/07/23 01:02:29;;;;;;;6.65;2.05;;;;;;;;;;6121382;23;20026;-61
2022/07/23 01:04:56;;;;;;;7.63;2.20;;;;;;;;;;6121669;23;20064;-61
2022/07/23 01:07:24;;;;;;;6.95;2.20;;;;;;;;;;6120179;23;20022;-61
2022/07/23 01:09:51;;;;;;;6.57;2.20;;;;;;;;;;6121396;23;20022;-61
2022/07/23 01:12:19;;;;;;;5.15;2.10;;;;;;;;;;6121135;23;20026;-61
2022/07/23 01:14:46;;;;;;;5.10;2.50;;;;;;;;;;6120764;23;20030;-61
2022/07/23 01:17:13;;;;;;;10.30;2.83;;;;;;;;;;6121066;23;20030;-61
2022/07/23 01:19:40;;;;;;;13.13;2.45;;;;;;;;;;6122124;23;20517;-66
2022/07/23 01:22:08;;;;;;;7.60;2.75;;;;;;;;;;6120754;23;20022;-65
2022/07/23 01:24:36;;;;;;;5.95;2.10;;;;;;;;;;6121237;23;20030;-65
2022/07/23 01:27:05;;;;;;;5.75;2.30;;;;;;;;;;6121346;23;20455;-66
2022/07/23 01:29:32;;;;;;;3.38;2.05;;;;;;;;;;6119920;23;20551;-65
2022/07/23 01:32:00;;;;;;;4.53;2.10;;;;;;;;;;6120432;23;20049;-65
2022/07/23 01:34:27;;;;;;;5.10;2.85;;;;;;;;;;6121135;23;20033;-66
2022/07/23 01:36:54;;;;;;;6.32;2.72;;;;;;;;;;6121274;23;20029;-47
2022/07/23 01:39:22;;;;;;;8.25;3.15;;;;;;;;;;6121126;23;20026;-65
2022/07/23 01:41:49;;;;;;;10.23;2.70;;;;;;;;;;6121663;23;20026;-65
2022/07/23 01:44:17;;;;;;;5.53;3.03;;;;;;;;;;6121078;23;20034;-66
2022/07/23 01:46:45;;;;;;;8.80;3.15;;;;;;;;;;6119949;23;20026;-66
2022/07/23 01:49:12;;;;;;;10.65;3.13;;;;;;;;;;6121400;23;20084;-65
2022/07/23 01:51:59;;;;;;;10.25;3.10;;;;;;;;;;6120832;23;20032;-66
2022/07/23 01:54:27;;;;;;;5.82;2.85;;;;;;;;;;6120924;23;20089;-66
2022/07/23 01:56:55;;;;;;;6.63;2.90;;;;;;;;;;6120817;23;20026;-62
2022/07/23 01:59:22;;;;;;;7.57;3.08;;;;;;;;;;6119606;23;20030;-53
2022/07/23 02:01:50;;;;;;;9.43;2.75;;;;;;;;;;6120295;23;20049;-52
2022/07/23 02:04:18;;;;;;;5.45;3.10;;;;;;;;;;6095196;23;20081;-52
2022/07/23 02:06:45;;;;;;;12.25;3.00;;;;;;;;;;6119411;23;20030;-55
2022/07/23 02:09:14;;;;;;;12.95;3.05;;;;;;;;;;6120883;23;20351;-52
2022/07/23 02:11:41;;;;;;;15.32;3.30;;;;;;;;;;6121184;23;20025;-51
2022/07/23 02:14:08;;;;;;;10.63;2.80;;;;;;;;;;6119952;23;20077;-55
2022/07/23 02:16:36;;;;;;;5.05;2.53;;;;;;;;;;6120491;23;20081;-65
2022/07/23 02:19:03;;;;;;;;;;;;;;;;;;6121752;23;20539;-64
2022/07/23 02:21:31;;;;;;;4.35;2.40;;;;;;;;;;6118969;23;19920;-65
2022/07/23 02:23:58;;;;;;;6.50;2.15;;;;;;;;;;6120789;23;20080;-65
2022/07/23 02:26:25;;;;;;;8.27;2.40;;;;;;;;;;6120532;23;20022;-65
2022/07/23 02:28:52;;;;;;;7.30;2.53;;;;;;;;;;6119865;23;20539;-64
2022/07/23 02:31:20;;;;;;;;;;;;;;;;;;6120031;23;20439;-65
2022/07/23 02:33:47;;;;;;;6.68;2.50;;;;;;;;;;6120037;23;20409;-66
2022/07/23 02:36:14;;;;;;;5.40;2.00;;;;;;;;;;6121000;23;20026;-62
2022/07/23 02:38:42;;;;;;;4.70;2.20;;;;;;;;;;6118773;23;20448;-55
2022/07/23 02:41:09;;;;;;;13.40;2.92;;;;;;;;;;6120977;23;20030;-55
2022/07/23 02:43:36;;;;;;;9.00;2.42;;;;;;;;;;6119948;23;20022;-54
2022/07/23 02:46:04;;;;;;;8.05;2.58;;;;;;;;;;6120591;23;20142;-53
2022/07/23 02:48:31;;;;;;;6.28;2.80;;;;;;;;;;6119888;23;20064;-55
2022/07/23 02:51:01;;;;;;;5.88;2.60;;;;;;;;;;6120692;23;20040;-56
2022/07/23 02:53:28;;;;;;;6.35;2.40;;;;;;;;;;6118216;23;20026;-61
2022/07/23 02:55:56;;;;;;;5.40;2.20;;;;;;;;;;6118916;23;20490;-54
2022/07/23 02:58:23;;;;;;;5.78;2.00;;;;;;;;;;6119571;23;20371;-65
2022/07/23 03:00:50;;;;;;;6.45;2.13;;;;;;;;;;6120122;23;20030;-65
2022/07/23 03:03:18;;;;;;;4.47;2.08;;;;;;;;;;6119351;23;20034;-65
2022/07/23 03:05:45;;;;;;;8.43;2.10;;;;;;;;;;6120723;23;20022;-66
2022/07/23 03:08:12;;;;;;;;;;;;;;;;;;6120924;23;20053;-65
2022/07/23 03:10:40;;;;;;;5.70;1.50;;;;;;;;;;6120292;23;19960;-65
2022/07/23 03:13:07;;;;;;;3.08;1.83;;;;;;;;;;6118862;23;20602;-56
2022/07/23 03:15:34;;;;;;;;;;;;;;;;;;6120434;23;20068;-66
2022/07/23 03:18:02;;;;;;;8.00;1.85;;;;;;;;;;6120553;23;20331;-61
2022/07/23 03:20:29;;;;;;;3.10;2.03;;;;;;;;;;6118490;23;20025;-62
2022/07/23 03:22:57;;;;;;;4.05;1.90;;;;;;;;;;6119859;23;20050;-61
2022/07/23 03:25:24;;;;;;;3.83;1.60;;;;;;;;;;6120415;23;20046;-61
2022/07/23 03:27:52;;;;;;;5.78;1.75;;;;;;;;;;6120482;23;20497;-62
2022/07/23 03:30:19;;;;;;;6.95;1.90;;;;;;;;;;6119705;23;20026;-61
2022/07/23 03:32:46;;;;;;;2.97;1.80;;;;;;;;;;6120163;23;20073;-51
2022/07/23 03:35:13;;;;;;;8.18;2.10;;;;;;;;;;6120504;23;20022;-48
2022/07/23 03:37:43;;;;;;;8.27;2.38;;;;;;;;;;6094258;23;20025;-52
2022/07/23 03:40:13;;;;;;;5.90;1.83;;;;;;;;;;6120881;23;20610;-49
2022/07/23 03:42:42;;;;;;;8.90;2.08;;;;;;;;;;6120375;23;20472;-50
2022/07/23 03:45:09;;;;;;;6.75;1.70;;;;;;;;;;6119487;23;20313;-49
2022/07/23 03:47:38;;;;;;;6.97;1.85;;;;;;;;;;6117711;23;20053;-53
2022/07/23 03:50:06;;;;;;;3.88;1.35;;;;;;;;;;6119877;23;20022;-52
2022/07/23 03:52:33;;;;;;;3.72;1.60;;;;;;;;;;6119015;23;20460;-54
2022/07/23 03:55:00;;;;;;;8.02;2.00;;;;;;;;;;6120326;23;20038;-53
2022/07/23 03:57:27;;;;;;;4.55;1.65;;;;;;;;;;6119722;23;20025;-52
2022/07/23 03:59:55;;;;;;;5.90;1.40;;;;;;;;;;6119447;23;20542;-53
2022/07/23 04:02:22;;;;;;;2.00;1.50;;;;;;;;;;6119874;23;20077;-51
2022/07/23 04:04:49;;;;;;;3.28;1.40;;;;;;;;;;6121040;23;20090;-50
2022/07/23 04:07:17;;;;;;;4.18;1.63;;;;;;;;;;6119617;23;20022;-52
2022/07/23 04:09:44;;;;;;;3.13;1.17;;;;;;;;;;6120981;23;20033;-65
2022/07/23 04:12:12;;;;;;;6.20;1.58;;;;;;;;;;6120015;23;20085;-65
2022/07/23 04:14:40;;;;;;;7.70;2.00;;;;;;;;;;6120760;23;20029;-66
2022/07/23 04:17:07;;;;;;;5.78;2.03;;;;;;;;;;6120120;23;20355;-66
2022/07/23 04:19:39;;;;;;;6.95;1.80;;;;;;;;;;6120492;23;20084;-66
2022/07/23 05:24:36;;;;;;;3.72;1.80;;;;;;;;;;5043435;28;20948;-60
2022/07/23 05:27:03;;;;;;;4.07;2.05;;;;;;;;;;5053288;22;20101;-64
2022/07/23 05:29:31;;;;;;;5.32;2.25;;;;;;;;;;5061303;28;20419;-65
2022/07/23 05:31:58;;;;;;;3.80;2.13;;;;;;;;;;5063662;28;21972;-64
2022/07/23 05:34:25;;;;;;;;;;;;;;;;;;5062852;28;20118;-65
2022/07/23 05:36:53;;;;;;;6.13;1.80;;;;;;;;;;5062100;28;19971;-64
2022/07/23 05:39:20;;;;;;;2.97;1.70;;;;;;;;;;5062835;28;20076;-65
2022/07/23 05:41:47;;;;;;;4.82;2.30;;;;;;;;;;5062691;28;20087;-55
2022/07/23 05:44:14;;;;;;;6.35;1.50;;;;;;;;;;5065514;28;20068;-68
2022/07/23 05:46:42;;;;;;;3.92;1.40;;;;;;;;;;5062141;28;20562;-51
2022/07/23 05:49:09;;;;;;;3.97;2.13;;;;;;;;;;5059954;28;20076;-52
2022/07/23 05:51:36;;;;;;;2.67;1.80;;;;;;;;;;5060792;28;20496;-51
2022/07/23 05:54:04;;;;;;;2.90;1.40;;;;;;;;;;5059811;28;20079;-53
2022/07/23 05:56:31;;;;;;;2.33;1.55;;;;;;;;;;5061438;28;20076;-53
2022/07/23 05:58:58;;;;;;;3.28;1.35;;;;;;;;;;5062773;28;20048;-53
2022/07/23 06:01:26;;;;;;;4.28;1.88;;;;;;;;;;5058695;28;20108;-54
2022/07/23 06:03:54;;;;;;;;;;;;;;;;;;5062573;28;20652;-64
2022/07/23 06:06:21;;;;;;;4.72;1.42;;;;;;;;;;5059362;28;19928;-64
2022/07/23 06:08:48;;;;;;;6.53;1.38;;;;;;;;;;5066035;28;20139;-64
2022/07/23 06:11:15;;;;;;;1.33;1.23;;;;;;;;;;5062022;28;20085;-64
2022/07/23 06:13:43;;;;;;;6.20;2.00;;;;;;;;;;5060428;28;20056;-64
2022/07/23 06:16:10;;;;;;;5.65;1.45;;;;;;;;;;5060872;28;20053;-64
2022/07/23 06:18:37;;;;;;;;;;;;;;;;;;5060532;28;20051;-64
2022/07/23 06:21:05;;;;;;;4.78;1.70;;;;;;;;;;5062375;28;19958;-66
2022/07/23 06:23:52;;;;;;;3.95;2.05;;;;;;;;;;5063633;28;20660;-66
2022/07/23 06:26:20;;;;;;;5.57;1.92;;;;;;;;;;5066550;28;20072;-66
2022/07/23 06:28:47;;;;;;;5.40;2.10;;;;;;;;;;5061572;28;20048;-66
2022/07/23 06:31:14;;;;;;;2.80;2.00;;;;;;;;;;5065799;28;20079;-66
2022/07/23 06:33:41;;;;;;;2.95;1.90;;;;;;;;;;5062468;28;20122;-67
2022/07/23 06:36:09;;;;;;;4.97;2.30;;;;;;;;;;5050023;28;20103;-66
2022/07/23 06:38:36;;;;;;;3.53;2.35;;;;;;;;;;5051365;28;20048;-63
2022/07/23 06:41:03;;;;;;;;;;;;;;;;;;5050738;28;20132;-62
2022/07/23 06:43:31;;;;;;;3.00;1.90;;;;;;;;;;5049612;28;19929;-62
2022/07/23 06:45:58;;;;;;;;;;;;;;;;;;5049828;28;20103;-62
2022/07/23 06:48:26;;;;;;;5.68;2.53;;;;;;;;;;5048656;28;19924;-62
2022/07/23 06:50:53;;;;;;;6.05;1.90;;;;;;;;;;5050763;28;20041;-62
2022/07/23 06:53:20;;;;;;;4.80;2.10;;;;;;;;;;5044608;28;20095;-62
2022/07/23 06:55:48;;;;;;;3.88;2.00;;;;;;;;;;5047953;28;20114;-62
2022/07/23 06:58:15;;;;;;;3.67;2.13;;;;;;;;;;5046189;28;20077;-64
2022/07/23 07:00:42;;;;;;;2.58;1.83;;;;;;;;;;5047301;28;20080;-62
2022/07/23 07:03:10;;;;;;;8.02;2.10;;;;;;;;;;5048417;28;20048;-64
2022/07/23 07:05:39;;;;;;;4.10;2.03;;;;;;;;;;5046560;28;20052;-64
2022/07/23 07:08:06;;;;;;;4.00;1.98;;;;;;;;;;5049918;28;20083;-63
2022/07/23 07:10:34;;;;;;;2.83;2.10;;;;;;;;;;5044517;28;20484;-63
2022/07/23 07:13:01;;;;;;;3.72;2.30;;;;;;;;;;5050306;28;20080;-64
2022/07/23 07:15:28;;;;;;;3.38;1.73;;;;;;;;;;5049089;28;20080;-63
2022/07/23 07:17:56;;;;;;;;;;;;;;;;;;5050836;28;20056;-60
2022/07/23 07:20:23;;;;;;;3.85;1.83;;;;;;;;;;5046864;28;20164;-62
2022/07/23 07:22:50;;;;;;;7.15;2.53;;;;;;;;;;5044843;28;20053;-63
2022/07/23 07:25:18;;;;;;;3.15;1.80;;;;;;;;;;5049350;28;20041;-63
2022/07/23 07:27:45;;;;;;;2.38;1.60;;;;;;;;;;5044783;28;20087;-63
2022/07/23 07:30:13;;;;;;;2.78;1.60;;;;;;;;;;5047973;28;20130;-63
2022/07/23 07:32:41;;;;;;;2.13;1.63;;;;;;;;;;5049956;28;20130;-63
2022/07/23 07:35:25;;;;;;;1.48;1.38;;;;;;;;;;5043700;28;20128;-63
2022/07/23 07:37:52;;;;;;;3.67;1.70;;;;;;;;;;5047938;28;20096;-66
2022/07/23 07:40:20;;;;;;;1.92;1.23;;;;;;;;;;5046588;28;20087;-63
2022/07/23 07:42:48;;;;;;;2.40;1.60;;;;;;;;;;5048659;28;20041;-63
2022/07/23 07:45:15;;;;;;;1.63;1.23;;;;;;;;;;5047469;28;20072;-63
2022/07/23 07:47:42;;;;;;;1.75;1.65;;;;;;;;;;5047480;28;20045;-63
2022/07/23 07:50:10;;;;;;;2.45;1.30;;;;;;;;;;5045381;28;20059;-63
2022/07/23 07:52:39;;;;;;;3.50;1.58;;;;;;;;;;5046422;28;20605;-63
2022/07/23 07:55:07;;;;;;;4.60;2.22;;;;;;;;;;5051176;28;20126;-54
2022/07/23 07:57:35;;;;;;;3.47;1.67;;;;;;;;;;5046705;28;20087;-62
2022/07/23 08:00:07;;;;;;;3.03;1.60;;;;;;;;;;5049912;28;20068;-63
2022/07/23 08:02:41;;;;;;;2.92;1.77;;;;;;;;;;5040765;28;20040;-63
2022/07/23 08:05:09;;;;;;;8.93;2.90;;;;;;;;;;5048549;28;20059;-63
2022/07/23 08:07:38;;;;;;;7.35;2.35;;;;;;;;;;5044754;28;20041;-63
2022/07/23 08:10:07;;;;;;;5.00;2.08;;;;;;;;;;5046500;28;20045;-63
2022/07/23 08:12:44;;;;;;;3.33;2.20;;;;;;;;;;5046391;28;20045;-64
2022/07/23 08:15:12;;;;;;;2.42;1.88;;;;;;;;;;5046763;28;20044;-60
2022/07/23 08:17:41;;;;;;;2.33;1.55;;;;;;;;;;5047635;28;20460;-67
2022/07/23 08:20:09;;;;;;;9.23;2.28;;;;;;;;;;5049484;28;22014;-67
2022/07/23 08:22:44;;;;;;;3.88;2.30;;;;;;;;;;5047321;28;20061;-67
2022/07/23 08:25:12;;;;;;;5.50;1.85;;;;;;;;;;5046571;28;20049;-67
2022/07/23 08:27:39;;;;;;;6.70;1.90;;;;;;;;;;5047630;28;20088;-67
2022/07/23 08:30:06;;;;;;;3.13;2.00;;;;;;;;;;5045269;28;20137;-67
2022/07/23 08:32:34;;;;;;;3.03;1.95;;;;;;;;;;5047360;28;20044;-53
2022/07/23 08:35:11;;;;;;;3.70;2.10;;;;;;;;;;5047547;28;20075;-67
2022/07/23 08:37:38;;;;;;;5.82;2.53;;;;;;;;;;5047077;28;20080;-51
2022/07/23 08:40:06;;;;;;;4.45;2.00;;;;;;;;;;5047086;28;20516;-51
2022/07/23 08:42:37;;;;;;;5.18;2.05;;;;;;;;;;5047580;28;20095;-49
2022/07/23 08:45:04;;;;;;;3.35;2.10;;;;;;;;;;5045803;28;20128;-53
2022/07/23 08:47:32;;;;;;;;;;;;;;;;;;5046927;28;20056;-50
2022/07/23 08:49:59;;;;;;;2.70;2.08;;;;;;;;;;5047066;28;19974;-52
2022/07/23 08:52:26;;;;;;;2.78;1.77;;;;;;;;;;5047101;28;20232;-51
2022/07/23 08:54:55;;;;;;;3.20;1.90;;;;;;;;;;5045935;28;20060;-63
2022/07/23 08:57:22;;;;;;;2.95;2.20;;;;;;;;;;5046628;28;20504;-52
2022/07/23 08:59:50;;;;;;;;;;;;;;;;;;5044185;28;20060;-50
2022/07/23 09:02:17;;;;;;;5.35;1.50;;;;;;;;;;5044360;28;19929;-55
2022/07/23 09:04:44;;;;;;;;;;;;;;;;;;5046463;28;20153;-50
2022/07/23 09:07:12;;;;;;;2.33;1.80;;;;;;;;;;5045091;28;19978;-51
2022/07/23 09:09:39;;;;;;;1.85;1.30;;;;;;;;;;5044216;28;20098;-49
2022/07/23 09:12:07;;;;;;;4.93;1.63;;;;;;;;;;5044045;28;20567;-55
2022/07/23 09:14:41;;;;;;;2.75;1.25;;;;;;;;;;5044113;28;20049;-50
2022/07/23 09:17:12;;;;;;;1.38;1.27;;;;;;;;;;5044712;28;20053;-56
2022/07/23 09:19:41;;;;;;;3.50;1.40;;;;;;;;;;5048494;28;20076;-55
2022/07/23 09:22:27;;;;;;;1.42;1.33;;;;;;;;;;5046258;28;20499;-55
2022/07/23 09:25:07;;;;;;;2.60;1.38;;;;;;;;;;5045645;28;20071;-57
2022/07/23 09:27:52;;;;;;;4.13;0.90;;;;;;;;;;5045005;28;20418;-53
2022/07/23 09:30:22;;;;;;;1.83;1.20;;;;;;;;;;5044157;28;20135;-63
2022/07/23 09:33:24;;;;;;;1.25;1.15;;;;;;;;;;5041131;28;20041;-62
2022/07/23 09:35:56;;;;;;;2.72;1.42;;;;;;;;;;5013454;28;20393;-52
2022/07/23 09:38:24;;;;;;;1.60;1.17;;;;;;;;;;5041622;28;20084;-50
2022/07/23 09:41:11;;;;;;;2.70;1.20;;;;;;;;;;5044658;28;20504;-49
2022/07/23 09:43:39;;;;;;;1.30;1.20;;;;;;;;;;5046941;28;20095;-49
2022/07/23 09:46:25;;;;;;;1.38;1.27;;;;;;;;;;5039195;28;20069;-47
2022/07/23 09:48:56;;;;;;;2.85;1.10;;;;;;;;;;5043451;28;20111;-66
2022/07/23 09:53:51;;;;;;;3.13;1.33;;;;;;;;;;5045788;28;20064;-62
2022/07/23 09:56:18;;;;;;;;;;;;;;;;;;5045456;28;20207;-61
2022/07/23 09:59:03;;;;;;;3.60;1.23;;;;;;;;;;5045336;28;19929;-61
2022/07/23 10:01:32;;;;;;;0.95;0.85;;;;;;;;;;5044202;28;20049;-61
2022/07/23 10:04:00;;;;;;;2.22;1.15;;;;;;;;;;5046677;28;20045;-62
2022/07/23 10:06:29;;;;;;;1.55;1.15;;;;;;;;;;5046515;28;20056;-61
2022/07/23 10:08:59;;;;;;;1.77;0.90;;;;;;;;;;5044929;28;20566;-67
2022/07/23 10:11:27;;;;;;;1.48;1.10;;;;;;;;;;5050567;28;20084;-63
2022/07/23 10:13:55;;;;;;;1.90;1.23;;;;;;;;;;5049912;28;20080;-57
2022/07/23 10:16:22;;;;;;;0.95;0.90;;;;;;;;;;5046273;28;20045;-59
2022/07/23 10:18:53;;;;;;;2.00;1.60;;;;;;;;;;5060809;28;20057;-59
2022/07/23 10:21:26;;;;;;;1.73;0.98;;;;;;;;;;5047333;28;20099;-58
2022/07/23 10:24:12;;;;;;;1.48;1.00;;;;;;;;;;5048163;28;20136;-58
2022/07/23 10:26:51;;;;;;;3.25;0.93;;;;;;;;;;5046474;28;20115;-56
2022/07/23 10:29:18;;;;;;;1.90;1.00;;;;;;;;;;5046504;28;20461;-51
2022/07/23 10:31:53;;;;;;;0.80;0.80;;;;;;;;;;5049617;28;20143;-49
2022/07/23 10:34:45;;;;;;;2.10;0.85;;;;;;;;;;5045810;28;20072;-51
2022/07/23 10:37:23;;;;;;;1.88;1.00;;;;;;;;;;5049717;28;20531;-50
2022/07/23 10:40:10;;;;;;;1.42;0.90;;;;;;;;;;5046246;28;20472;-52
2022/07/23 10:42:38;;;;;;;3.13;0.82;;;;;;;;;;5046799;28;20053;-56
2022/07/23 10:45:24;;;;;;;1.95;0.90;;;;;;;;;;5046472;28;20129;-48
2022/07/23 10:47:52;;;;;;;0.77;0.77;;;;;;;;;;5045860;28;20053;-51
2022/07/23 10:50:20;;;;;;;0.93;0.80;;;;;;;;;;5046950;28;20126;-62
2022/07/23 10:53:15;;;;;;;2.67;1.13;;;;;;;;;;5045589;28;20047;-61
2022/07/23 10:55:44;;;;;;;1.75;1.00;;;;;;;;;;5047158;28;20053;-62
2022/07/23 10:58:12;;;;;;;1.33;1.00;;;;;;;;;;5046992;28;20069;-61
2022/07/23 11:00:39;;;;;;;1.10;1.00;;;;;;;;;;5046179;28;20554;-62
2022/07/23 11:03:26;;;;;;;1.67;1.10;;;;;;;;;;5040405;28;20045;-62
2022/07/23 11:05:54;;;;;;;1.70;1.15;;;;;;;;;;5044892;28;20735;-68
2022/07/23 11:08:21;;;;;;;;;;;;;;;;;;5047503;28;20076;-60
2022/07/23 11:10:50;;;;;;;1.17;1.00;;;;;;;;;;5048578;28;19967;-50
2022/07/23 11:13:24;;;;;;;2.35;1.13;;;;;;;;;;5047024;28;20048;-51
2022/07/23 11:16:27;;;;;;;1.23;1.13;;;;;;;;;;5048636;28;20053;-49
2022/07/23 11:18:55;;;;;;;0.98;0.75;;;;;;;;;;5005714;28;20099;-53
2022/07/23 11:24:00;;;;;;;3.00;1.10;;;;;;;;;;5048375;28;20141;-52
2022/07/23 11:26:48;;;;;;;2.17;1.40;;;;;;;;;;5046748;28;20139;-59
2022/07/23 11:29:28;;;;;;;3.30;1.17;;;;;;;;;;5046567;28;20049;-69
2022/07/23 11:31:56;;;;;;;1.50;1.40;;;;;;;;;;5044192;28;20756;-68
2022/07/23 11:34:26;;;;;;;1.00;1.00;;;;;;;;;;5049644;28;20040;-69
2022/07/23 11:36:53;;;;;;;3.35;1.30;;;;;;;;;;5047490;28;20072;-68
2022/07/23 11:39:21;;;;;;;4.72;1.27;;;;;;;;;;5046745;28;20053;-68
2022/07/23 11:41:48;;;;;;;1.35;1.08;;;;;;;;;;5045855;28;20111;-68
2022/07/23 11:44:28;;;;;;;2.33;1.30;;;;;;;;;;5047095;28;20122;-61
2022/07/23 11:46:57;;;;;;;2.35;1.20;;;;;;;;;;5044851;28;20088;-53
2022/07/23 11:49:25;;;;;;;1.73;1.40;;;;;;;;;;5046125;28;20055;-51
2022/07/23 11:52:12;;;;;;;4.70;1.58;;;;;;;;;;5047727;28;20052;-52
2022/07/23 11:54:51;;;;;;;1.08;0.98;;;;;;;;;;5043196;28;20454;-54
2022/07/23 11:57:19;;;;;;;4.22;1.30;;;;;;;;;;5045223;28;20585;-52
2022/07/23 11:59:47;;;;;;;3.75;1.50;;;;;;;;;;5045869;28;20509;-53
2022/07/23 12:02:15;;;;;;;1.30;1.20;;;;;;;;;;5042656;28;20040;-64
2022/07/23 12:04:43;;;;;;;2.83;1.50;;;;;;;;;;5045646;28;20085;-58
2022/07/23 12:07:30;;;;;;;1.52;1.33;;;;;;;;;;5046809;28;20060;-53
2022/07/23 12:09:58;;;;;;;2.35;1.30;;;;;;;;;;5045178;28;20130;-49
2022/07/23 12:12:26;;;;;;;1.73;1.40;;;;;;;;;;5046830;28;20130;-50
2022/07/23 12:14:55;;;;;;;2.10;1.00;;;;;;;;;;5049953;28;20508;-49
2022/07/23 12:17:28;;;;;;;2.75;1.27;;;;;;;;;;5045392;28;20478;-53
2022/07/23 12:19:56;;;;;;;1.40;1.27;;;;;;;;;;5045873;28;20228;-50
2022/07/23 12:22:24;;;;;;;3.38;1.40;;;;;;;;;;5047550;28;20041;-51
2022/07/23 12:24:55;;;;;;;4.78;1.40;;;;;;;;;;5046243;28;20610;-60
2022/07/23 12:27:22;;;;;;;1.63;1.42;;;;;;;;;;5043687;28;20053;-48
2022/07/23 12:29:50;;;;;;;1.85;1.30;;;;;;;;;;5044904;28;20135;-51
2022/07/23 12:32:21;;;;;;;1.80;1.40;;;;;;;;;;5046414;28;20171;-54
2022/07/23 12:34:50;;;;;;;1.67;1.20;;;;;;;;;;5046091;28;20083;-52
2022/07/23 12:37:27;;;;;;;2.03;1.20;;;;;;;;;;5044600;28;20226;-50
2022/07/23 12:39:55;;;;;;;2.38;1.33;;;;;;;;;;5046970;28;20154;-51
2022/07/23 12:42:24;;;;;;;1.63;1.50;;;;;;;;;;5045919;28;20143;-53
2022/07/23 12:45:07;;;;;;;2.83;1.35;;;;;;;;;;5044697;28;20115;-58
2022/07/23 12:47:50;;;;;;;1.60;1.38;;;;;;;;;;5046028;28;20037;-58
2022/07/23 12:50:37;;;;;;;2.00;1.25;;;;;;;;;;5043343;28;20058;-57
2022/07/23 12:53:06;;;;;;;1.38;1.27;;;;;;;;;;5046327;28;20072;-57
2022/07/23 12:55:40;;;;;;;2.03;1.40;;;;;;;;;;5041988;28;20045;-58
2022/07/23 12:58:39;;;;;;;1.40;1.30;;;;;;;;;;5045303;28;20520;-58
2022/07/23 13:01:10;;;;;;;3.75;1.73;;;;;;;;;;5043561;28;20118;-61
2022/07/23 13:04:02;;;;;;;1.83;1.60;;;;;;;;;;5045372;28;20049;-64
2022/07/23 13:06:38;;;;;;;2.58;1.27;;;;;;;;;;5042351;28;20291;-63
2022/07/23 13:09:07;;;;;;;2.53;1.42;;;;;;;;;;5047547;28;20048;-63
2022/07/23 13:11:35;;;;;;;3.15;1.35;;;;;;;;;;5044634;28;20033;-63
2022/07/23 13:14:03;;;;;;;1.50;1.40;;;;;;;;;;5044804;28;20049;-63
2022/07/23 13:16:35;;;;;;;2.30;1.30;;;;;;;;;;5041766;28;20045;-62
2022/07/23 13:19:03;;;;;;;3.80;1.27;;;;;;;;;;5046794;28;20520;-63
2022/07/23 13:21:30;;;;;;;2.35;1.45;;;;;;;;;;5045577;28;20049;-49
2022/07/23 13:23:58;;;;;;;7.93;1.27;;;;;;;;;;5044138;28;20531;-60
2022/07/23 13:26:26;;;;;;;1.48;1.30;;;;;;;;;;5045909;28;20483;-61
2022/07/23 13:28:54;;;;;;;1.40;1.10;;;;;;;;;;5046108;28;20128;-61
2022/07/23 13:31:21;;;;;;;2.15;1.45;;;;;;;;;;5045522;28;20049;-61
2022/07/23 13:33:50;;;;;;;1.77;1.30;;;;;;;;;;5044166;28;20053;-59
2022/07/23 13:36:18;;;;;;;;;;;;;;;;;;5045556;28;20132;-59
2022/07/23 13:38:45;;;;;;;1.23;1.13;;;;;;;;;;5046990;28;20002;-51
2022/07/23 13:41:13;;;;;;;2.38;1.23;;;;;;;;;;5043229;28;20080;-62
2022/07/23 13:43:40;;;;;;;;;;;;;;;;;;5046060;28;20053;-63
2022/07/23 13:46:07;;;;;;;1.23;1.02;;;;;;;;;;5045990;28;19925;-63
2022/07/23 13:48:35;;;;;;;2.58;1.13;;;;;;;;;;5050608;28;21759;-63
2022/07/23 13:51:03;;;;;;;4.03;1.50;;;;;;;;;;5048682;28;20040;-63
2022/07/23 13:53:30;;;;;;;;;;;;;;;;;;5047781;28;20110;-62
2022/07/23 13:55:58;;;;;;;4.80;1.45;;;;;;;;;;5048807;28;19995;-63
2022/07/23 13:58:25;;;;;;;5.25;1.35;;;;;;;;;;5048401;28;20072;-58
2022/07/23 14:00:53;;;;;;;1.15;1.05;;;;;;;;;;5050031;28;20049;-48
2022/07/23 14:03:25;;;;;;;1.23;0.93;;;;;;;;;;5046499;28;20094;-51
2022/07/23 14:05:54;;;;;;;1.42;1.33;;;;;;;;;;5048022;28;20122;-49
2022/07/23 14:08:23;;;;;;;1.40;1.17;;;;;;;;;;5048264;28;20037;-49
2022/07/23 14:10:50;;;;;;;1.40;1.10;;;;;;;;;;5042864;28;20164;-49
2022/07/23 14:13:17;;;;;;;1.38;1.10;;;;;;;;;;5044456;28;20483;-50
2022/07/23 14:15:49;;;;;;;1.33;0.90;;;;;;;;;;5047908;28;20077;-68
2022/07/23 14:18:17;;;;;;;2.50;1.15;;;;;;;;;;5047428;28;20515;-51
2022/07/23 14:20:44;;;;;;;1.65;1.33;;;;;;;;;;5048404;28;20152;-58
2022/07/23 14:23:11;;;;;;;;;;;;;;;;;;5047427;28;20124;-58
2022/07/23 14:25:39;;;;;;;1.38;1.10;;;;;;;;;;5047383;28;19963;-58
2022/07/23 14:28:06;;;;;;;1.25;1.15;;;;;;;;;;5043071;28;20565;-58
2022/07/23 14:30:35;;;;;;;1.10;1.00;;;;;;;;;;5043998;28;20053;-57
2022/07/23 14:33:02;;;;;;;2.83;1.40;;;;;;;;;;5045604;28;20186;-58
2022/07/23 14:35:29;;;;;;;1.40;0.90;;;;;;;;;;5042261;28;20162;-59
2022/07/23 14:37:57;;;;;;;1.40;1.27;;;;;;;;;;5046402;28;20057;-67
2022/07/23 14:40:25;;;;;;;1.10;1.00;;;;;;;;;;5044382;28;20048;-59
2022/07/23 14:42:55;;;;;;;1.10;1.00;;;;;;;;;;5046398;28;20060;-59
2022/07/23 14:45:22;;;;;;;;;;;;;;;;;;5046460;28;20063;-59
2022/07/23 14:47:49;;;;;;;2.00;1.02;;;;;;;;;;5046081;28;19921;-59
2022/07/23 14:50:17;;;;;;;0.90;0.90;;;;;;;;;;5045261;28;20135;-59
2022/07/23 14:52:45;;;;;;;4.55;1.33;;;;;;;;;;5045224;28;20127;-59
2022/07/23 14:55:16;;;;;;;1.10;1.00;;;;;;;;;;5041698;28;20049;-59
2022/07/23 14:57:45;;;;;;;1.10;1.10;;;;;;;;;;5045242;28;20053;-68
2022/07/23 15:00:12;;;;;;;1.33;1.23;;;;;;;;;;5047283;28;20078;-67
2022/07/23 15:02:43;;;;;;;1.00;0.90;;;;;;;;;;5047392;28;20049;-67
2022/07/23 15:05:19;;;;;;;1.42;1.23;;;;;;;;;;5045534;28;20169;-67
2022/07/23 15:07:47;;;;;;;1.75;1.17;;;;;;;;;;5044033;28;20045;-67
2022/07/23 15:10:15;;;;;;;1.55;1.00;;;;;;;;;;5045199;28;20045;-67
2022/07/23 15:12:48;;;;;;;0.98;0.98;;;;;;;;;;5043350;28;20052;-68
2022/07/23 15:15:15;;;;;;;;;;;;;;;;;;5044620;28;20045;-58
2022/07/23 15:17:43;;;;;;;2.92;1.27;;;;;;;;;;5044274;28;19921;-58
2022/07/23 15:20:10;;;;;;;0.80;0.80;;;;;;;;;;5044395;28;20106;-56
2022/07/23 15:22:41;;;;;;;1.40;1.10;;;;;;;;;;5045306;28;20048;-56
2022/07/23 15:25:08;;;;;;;1.15;1.10;;;;;;;;;;5045920;28;20044;-57
2022/07/23 15:27:38;;;;;;;1.05;1.05;;;;;;;;;;5044854;28;20045;-56
2022/07/23 15:30:06;;;;;;;;;;;;;;;;;;5045568;28;20077;-56
2022/07/23 15:32:33;;;;;;;1.63;1.20;;;;;;;;;;5043733;28;19928;-59
2022/07/23 15:35:00;;;;;;;1.08;1.08;;;;;;;;;;5043320;28;20064;-57
2022/07/23 15:37:30;;;;;;;2.20;1.15;;;;;;;;;;5044374;28;20122;-51
2022/07/23 15:39:57;;;;;;;1.33;1.23;;;;;;;;;;5048343;28;20480;-47
2022/07/23 15:42:25;;;;;;;2.20;1.35;;;;;;;;;;5044946;28;20053;-49
2022/07/23 15:44:55;;;;;;;1.70;1.30;;;;;;;;;;5043528;28;20675;-49
2022/07/23 15:47:22;;;;;;;3.22;1.20;;;;;;;;;;5044064;28;20036;-47
2022/07/23 15:49:51;;;;;;;3.15;1.75;;;;;;;;;;5043662;28;20044;-49
2022/07/23 15:52:19;;;;;;;1.42;1.17;;;;;;;;;;5042478;28;20575;-59
2022/07/23 15:54:48;;;;;;;1.35;0.95;;;;;;;;;;5044776;28;20056;-57
2022/07/23 15:57:15;;;;;;;1.40;1.30;;;;;;;;;;5044740;28;20567;-56
2022/07/23 15:59:45;;;;;;;1.35;1.17;;;;;;;;;;5046715;28;20128;-57
2022/07/23 16:02:15;;;;;;;1.83;1.08;;;;;;;;;;5044358;28;20839;-58
2022/07/23 16:04:43;;;;;;;1.15;1.15;;;;;;;;;;5043758;28;20511;-58
2022/07/23 16:07:10;;;;;;;;;;;;;;;;;;5042506;28;20048;-57
2022/07/23 16:09:41;;;;;;;1.92;1.50;;;;;;;;;;5044334;28;20501;-59
2022/07/23 16:12:08;;;;;;;2.10;1.60;;;;;;;;;;5043752;28;20076;-56